Colonial Heights, Virginia
Current Conditions -  °F | °C
As of 5:15 AM on Saturday 25 Oct 2014 (Local Time) from KPTB Reporting Station
Unknown Precip Unknown Precip  
Wind Chill: 37°   Ceiling: Unl
Heat Index: 37°   Visibility: 4mi
Dew Point: 36°   Wind: 0mph
Humidity: 98%   Direction: NA
Pressure: 29.98"   Gusts: NA
Location:  37.25°N, 77.41°W
Report Text: KPTB 250915Z AUTO 00000KT 4SM UP CLR 03/02 A2998 RMK AO2 T00270024
Loading
Personal Weather Stations






























Interactive Weather Map
Tropical Storm Tracking
New forecast layout! Learn more

10-Day Weather Forecast

Advertisements
Track Severe Weather on mobile